Time;durP1;ratioP1;P1;durP2;ratioP2;P2;SDS_P1;SDS_P2;PMS_P1;PMS_P2;Temp;Humidity;BMP_temperature;BMP_pressure;BME280_temperature;BME280_humidity;BME280_pressure;Samples;Min_cycle;Max_cycle;Signal;HPM_P1;HPM_P2
2023/05/26 00:00:45;;;;;;;9.00;6.60;;;;;18.90;97293.00;;;;5004545;28;20210;-75
2023/05/26 00:03:35;;;;;;;8.53;6.53;;;;;19.10;97292.00;;;;5004028;28;21444;-75
2023/05/26 00:06:24;;;;;;;9.10;6.47;;;;;19.20;97288.00;;;;5004106;28;20296;-74
2023/05/26 00:09:13;;;;;;;8.03;6.47;;;;;19.30;97285.00;;;;5003460;28;20206;-73
2023/05/26 00:12:02;;;;;;;7.97;6.57;;;;;19.30;97280.00;;;;5006332;28;20206;-74
2023/05/26 00:14:51;;;;;;;7.43;6.70;;;;;19.30;97281.00;;;;5000335;28;20206;-74
2023/05/26 00:17:42;;;;;;;7.93;6.47;;;;;19.30;97277.00;;;;5003925;28;20222;-74
2023/05/26 00:20:31;;;;;;;10.03;6.07;;;;;19.20;97276.00;;;;5005899;28;20209;-74
2023/05/26 00:23:20;;;;;;;9.57;7.07;;;;;18.90;97273.00;;;;5000904;28;20206;-74
2023/05/26 00:26:09;;;;;;;14.00;6.17;;;;;18.80;97273.00;;;;5007287;28;21162;-74
2023/05/26 00:28:58;;;;;;;11.70;6.80;;;;;18.80;97263.00;;;;5006803;28;20294;-74
2023/05/26 00:31:47;;;;;;;14.67;6.30;;;;;18.40;97263.00;;;;5005784;28;20213;-74
2023/05/26 00:34:37;;;;;;;8.97;6.47;;;;;18.50;97271.00;;;;4999875;28;20211;-74
2023/05/26 00:37:26;;;;;;;7.80;6.03;;;;;18.90;97262.00;;;;5009480;28;20225;-74
2023/05/26 00:40:15;;;;;;;15.07;6.80;;;;;19.00;97258.00;;;;5010388;28;20206;-74
2023/05/26 00:43:04;;;;;;;8.57;6.80;;;;;19.10;97259.00;;;;5011094;28;20209;-74
2023/05/26 00:45:54;;;;;;;14.03;6.83;;;;;19.10;97260.00;;;;5009836;28;20596;-73
2023/05/26 00:48:43;;;;;;;10.10;6.80;;;;;19.10;97256.00;;;;5005170;28;20616;-74
2023/05/26 00:51:33;;;;;;;7.23;6.53;;;;;19.10;97257.00;;;;5009703;28;20214;-74
2023/05/26 00:54:23;;;;;;;8.87;6.90;;;;;18.70;97258.00;;;;5005571;28;20591;-73
2023/05/26 00:57:12;;;;;;;7.77;6.60;;;;;18.50;97252.00;;;;5010543;28;20226;-73
2023/05/26 01:00:03;;;;;;;8.70;6.67;;;;;18.60;97243.00;;;;5011584;28;20218;-74
2023/05/26 01:02:56;;;;;;;9.63;6.63;;;;;18.60;97239.00;;;;5007855;28;20282;-74
2023/05/26 01:05:45;;;;;;;7.47;6.70;;;;;18.90;97240.00;;;;5003315;28;20202;-74
2023/05/26 01:08:36;;;;;;;11.03;7.20;;;;;19.00;97232.00;;;;5008622;28;20292;-73
2023/05/26 01:11:29;;;;;;;9.37;6.93;;;;;19.00;97237.00;;;;5007930;28;20209;-74
2023/05/26 01:14:28;;;;;;;7.00;5.80;;;;;19.00;97228.00;;;;5008376;28;20223;-73
2023/05/26 01:17:23;;;;;;;10.63;7.00;;;;;19.00;97229.00;;;;4996730;28;20227;-74
2023/05/26 01:20:19;;;;;;;11.23;7.20;;;;;18.90;97221.00;;;;5001985;28;20225;-74
2023/05/26 01:23:23;;;;;;;6.77;6.10;;;;;19.00;97225.00;;;;5006095;28;20225;-75
2023/05/26 01:26:33;;;;;;;8.83;6.93;;;;;18.80;97218.00;;;;5005440;28;20217;-74
2023/05/26 01:29:24;;;;;;;10.97;7.43;;;;;18.60;97223.00;;;;5006539;28;20201;-74
2023/05/26 01:32:17;;;;;;;9.17;7.00;;;;;18.30;97225.00;;;;5003895;28;20206;-74
2023/05/26 01:35:07;;;;;;;11.77;7.00;;;;;18.40;97223.00;;;;5001958;28;20197;-74
2023/05/26 01:37:57;;;;;;;9.23;7.10;;;;;18.70;97220.00;;;;5009953;28;20257;-74
2023/05/26 01:40:48;;;;;;;8.50;6.83;;;;;18.80;97222.00;;;;5009841;28;20213;-74
2023/05/26 01:43:42;;;;;;;9.87;6.53;;;;;18.80;97225.00;;;;5001246;28;20211;-74
2023/05/26 01:46:39;;;;;;;7.70;6.63;;;;;18.80;97211.00;;;;5006667;28;20205;-73
2023/05/26 01:49:30;;;;;;;7.43;6.13;;;;;18.80;97218.00;;;;4999996;28;20211;-73
2023/05/26 01:52:19;;;;;;;6.97;6.27;;;;;18.70;97223.00;;;;5009324;28;20209;-73
2023/05/26 01:55:11;;;;;;;10.53;7.77;;;;;18.60;97217.00;;;;5005124;28;20210;-75
2023/05/26 01:58:00;;;;;;;11.13;6.83;;;;;18.40;97216.00;;;;5005800;28;20237;-74
2023/05/26 02:00:50;;;;;;;8.10;6.73;;;;;18.00;97216.00;;;;5008399;28;20218;-73
2023/05/26 02:03:42;;;;;;;8.93;6.80;;;;;18.20;97220.00;;;;5006604;28;20205;-74
2023/05/26 02:06:31;;;;;;;7.43;6.43;;;;;18.30;97218.00;;;;5006653;28;20210;-74
2023/05/26 02:09:20;;;;;;;10.00;7.00;;;;;18.30;97218.00;;;;5007673;28;20202;-73
2023/05/26 02:12:09;;;;;;;9.20;7.00;;;;;18.30;97214.00;;;;5004428;28;20206;-74
2023/05/26 02:14:58;;;;;;;11.33;7.63;;;;;18.20;97215.00;;;;5010003;28;20198;-74
2023/05/26 02:17:48;;;;;;;9.90;7.37;;;;;18.20;97216.00;;;;4997755;28;20688;-74
2023/05/26 02:20:39;;;;;;;7.43;6.43;;;;;18.10;97220.00;;;;5008066;28;20226;-74
2023/05/26 02:23:28;;;;;;;11.47;7.00;;;;;17.90;97223.00;;;;5009123;28;20213;-73
2023/05/26 02:26:17;;;;;;;10.80;6.70;;;;;17.50;97218.00;;;;5006025;28;20202;-74
2023/05/26 02:29:06;;;;;;;9.80;7.30;;;;;16.90;97220.00;;;;5009116;28;20286;-74
2023/05/26 02:31:55;;;;;;;10.90;6.70;;;;;17.10;97226.00;;;;5006802;28;20217;-73
2023/05/26 02:34:44;;;;;;;7.83;7.00;;;;;17.40;97223.00;;;;5002842;28;20198;-74
2023/05/26 02:37:34;;;;;;;10.70;6.47;;;;;17.50;97212.00;;;;5007905;28;20974;-74
2023/05/26 02:40:23;;;;;;;10.87;7.20;;;;;17.50;97220.00;;;;5003685;28;20226;-74
2023/05/26 02:43:12;;;;;;;8.07;6.80;;;;;17.40;97229.00;;;;5009740;28;20209;-74
2023/05/26 02:46:01;;;;;;;8.70;6.23;;;;;17.00;97228.00;;;;4999051;28;20218;-74
2023/05/26 02:48:50;;;;;;;11.13;7.03;;;;;17.20;97230.00;;;;5008464;28;20292;-74
2023/05/26 02:51:39;;;;;;;10.60;6.47;;;;;17.20;97236.00;;;;5007455;28;20202;-74
2023/05/26 02:54:31;;;;;;;12.53;8.33;;;;;17.00;97234.00;;;;5008179;28;20592;-73
2023/05/26 02:57:20;;;;;;;7.80;6.60;;;;;17.10;97231.00;;;;5002193;28;20991;-74
2023/05/26 03:00:12;;;;;;;8.97;7.17;;;;;17.00;97228.00;;;;5007026;28;20229;-73
2023/05/26 03:03:01;;;;;;;8.20;6.87;;;;;17.00;97228.00;;;;5001280;28;20667;-73
2023/05/26 03:05:51;;;;;;;7.87;7.03;;;;;17.00;97218.00;;;;5007922;28;20213;-72
2023/05/26 03:08:40;;;;;;;12.10;6.27;;;;;16.90;97214.00;;;;4998558;28;20237;-73
2023/05/26 03:11:30;;;;;;;8.40;6.30;;;;;16.40;97217.00;;;;5002347;28;20198;-73
2023/05/26 03:14:20;;;;;;;7.77;6.20;;;;;16.40;97210.00;;;;5006759;28;20222;-73
2023/05/26 03:17:09;;;;;;;8.87;6.30;;;;;15.80;97217.00;;;;5001373;28;20245;-73
2023/05/26 03:19:58;;;;;;;9.33;6.80;;;;;16.10;97223.00;;;;5005405;28;20218;-74
2023/05/26 03:22:47;;;;;;;10.50;7.03;;;;;16.40;97224.00;;;;4999938;28;20713;-74
2023/05/26 03:25:36;;;;;;;9.67;7.00;;;;;15.90;97214.00;;;;4997524;28;20206;-74
2023/05/26 03:28:26;;;;;;;8.17;7.30;;;;;15.70;97219.00;;;;5007446;28;20236;-73
2023/05/26 03:31:16;;;;;;;8.17;7.20;;;;;16.10;97213.00;;;;5004981;28;20663;-73
2023/05/26 03:34:05;;;;;;;11.43;7.47;;;;;16.30;97223.00;;;;5002277;28;20202;-73
2023/05/26 03:36:54;;;;;;;10.63;7.50;;;;;16.40;97219.00;;;;4995954;28;20231;-74
2023/05/26 03:39:43;;;;;;;8.70;7.23;;;;;16.00;97216.00;;;;5004750;28;20229;-73
2023/05/26 03:42:32;;;;;;;12.30;8.00;;;;;16.20;97215.00;;;;5007290;28;20213;-73
2023/05/26 03:45:22;;;;;;;10.80;7.23;;;;;16.00;97216.00;;;;5008231;28;20209;-73
2023/05/26 03:48:12;;;;;;;10.87;7.53;;;;;16.30;97220.00;;;;5001571;28;20230;-74
2023/05/26 03:51:01;;;;;;;8.97;7.63;;;;;16.10;97215.00;;;;5007958;28;20210;-73
2023/05/26 03:53:50;;;;;;;9.67;7.43;;;;;16.20;97217.00;;;;5005407;28;20224;-73
2023/05/26 03:56:39;;;;;;;12.23;7.73;;;;;16.20;97207.00;;;;5004623;28;20221;-72
2023/05/26 03:59:28;;;;;;;9.23;7.77;;;;;16.00;97206.00;;;;5003837;28;20210;-73
2023/05/26 04:02:19;;;;;;;8.00;7.00;;;;;15.70;97196.00;;;;5000543;28;20221;-74
2023/05/26 04:05:09;;;;;;;9.97;7.63;;;;;16.10;97200.00;;;;5007518;28;20579;-74
2023/05/26 04:07:58;;;;;;;11.47;8.13;;;;;16.20;97209.00;;;;4999918;28;20229;-74
2023/05/26 04:10:47;;;;;;;8.73;7.77;;;;;16.20;97215.00;;;;5004765;28;20209;-74
2023/05/26 04:16:32;;;;;;;12.90;7.17;;;;;16.20;97215.00;;;;4955783;28;20216;-73
2023/05/26 04:19:22;;;;;;;8.90;7.07;;;;;16.40;97202.00;;;;4955520;29;20212;-74
2023/05/26 04:22:12;;;;;;;12.73;7.80;;;;;16.40;97203.00;;;;4954710;29;20708;-74
2023/05/26 04:25:01;;;;;;;8.60;6.63;;;;;16.50;97210.00;;;;4951489;28;20227;-73
2023/05/26 04:27:52;;;;;;;10.20;6.90;;;;;16.50;97206.00;;;;4955310;28;20224;-72
2023/05/26 04:30:42;;;;;;;9.13;6.87;;;;;16.60;97200.00;;;;4955089;28;20210;-73
2023/05/26 04:33:31;;;;;;;10.60;6.97;;;;;16.70;97203.00;;;;4956111;28;20604;-72
2023/05/26 04:36:23;;;;;;;8.70;6.83;;;;;16.50;97211.00;;;;4953598;29;20212;-73
2023/05/26 04:39:12;;;;;;;12.00;7.57;;;;;16.60;97208.00;;;;4950429;28;20208;-74
2023/05/26 04:42:02;;;;;;;8.83;7.93;;;;;16.80;97210.00;;;;4941087;28;20212;-73
2023/05/26 04:44:54;;;;;;;12.57;7.93;;;;;17.00;97206.00;;;;4947881;28;20633;-73
2023/05/26 04:47:43;;;;;;;13.40;7.10;;;;;17.30;97210.00;;;;4954622;28;20225;-73
2023/05/26 04:50:33;;;;;;;13.00;6.70;;;;;17.30;97201.00;;;;4952400;28;20227;-74
2023/05/26 04:53:23;;;;;;;12.23;7.40;;;;;17.60;97217.00;;;;4957468;28;20195;-73
2023/05/26 04:56:12;;;;;;;9.10;6.50;;;;;17.80;97205.00;;;;4954065;28;20215;-74
2023/05/26 04:59:02;;;;;;;8.53;7.03;;;;;17.80;97206.00;;;;4959854;28;20216;-71
2023/05/26 05:01:51;;;;;;;9.63;7.07;;;;;18.00;97218.00;;;;4952286;28;20607;-71
2023/05/26 05:04:42;;;;;;;10.90;7.57;;;;;18.20;97218.00;;;;4953077;28;20227;-72
2023/05/26 05:07:32;;;;;;;12.10;6.87;;;;;18.30;97228.00;;;;4954508;28;20212;-72
2023/05/26 05:10:22;;;;;;;13.50;7.43;;;;;18.50;97219.00;;;;4953895;28;20587;-72
2023/05/26 05:13:11;;;;;;;13.53;6.67;;;;;18.70;97215.00;;;;4958257;28;20215;-72
2023/05/26 05:16:01;;;;;;;12.57;7.77;;;;;18.70;97218.00;;;;4948174;28;20220;-71
2023/05/26 05:18:50;;;;;;;14.40;7.63;;;;;18.90;97221.00;;;;4943568;29;20212;-72
2023/05/26 05:21:39;;;;;;;9.20;6.80;;;;;19.10;97218.00;;;;4940347;29;20235;-71
2023/05/26 05:24:28;;;;;;;9.97;6.73;;;;;19.30;97219.00;;;;4932174;29;20220;-71
2023/05/26 05:27:18;;;;;;;10.23;6.27;;;;;19.30;97210.00;;;;4939000;29;20208;-71
2023/05/26 05:30:08;;;;;;;8.87;7.00;;;;;19.40;97221.00;;;;4937602;29;20208;-71
2023/05/26 05:32:57;;;;;;;8.80;5.87;;;;;19.60;97219.00;;;;4931513;29;20201;-72
2023/05/26 05:35:46;;;;;;;9.93;6.53;;;;;19.80;97228.00;;;;4939083;29;20608;-71
2023/05/26 05:38:35;;;;;;;9.77;6.10;;;;;19.90;97224.00;;;;4944308;29;20215;-73
2023/05/26 05:41:24;;;;;;;11.80;5.50;;;;;20.00;97225.00;;;;4935207;29;20233;-72
2023/05/26 05:44:15;;;;;;;7.20;5.83;;;;;20.20;97219.00;;;;4932076;29;20233;-72
2023/05/26 05:47:04;;;;;;;6.60;5.87;;;;;20.30;97227.00;;;;4933901;29;20215;-72
2023/05/26 05:49:53;;;;;;;7.47;5.60;;;;;20.50;97225.00;;;;4923107;29;20209;-72
2023/05/26 05:52:42;;;;;;;11.37;6.87;;;;;20.60;97227.00;;;;4927757;29;20201;-73
2023/05/26 05:55:31;;;;;;;9.00;6.27;;;;;20.70;97222.00;;;;4933316;29;20232;-72
2023/05/26 05:58:21;;;;;;;7.07;6.33;;;;;20.80;97230.00;;;;4932641;29;20775;-71
2023/05/26 06:01:11;;;;;;;6.67;5.37;;;;;20.90;97226.00;;;;4935662;29;20220;-71
2023/05/26 06:04:00;;;;;;;9.40;5.70;;;;;21.00;97230.00;;;;4934267;29;20237;-71
2023/05/26 06:06:50;;;;;;;12.20;6.30;;;;;21.10;97228.00;;;;4933997;29;20205;-71
2023/05/26 06:09:39;;;;;;;13.27;6.50;;;;;21.30;97236.00;;;;4935433;29;20205;-71
2023/05/26 06:12:28;;;;;;;7.50;5.67;;;;;21.40;97237.00;;;;4930754;29;20208;-71
2023/05/26 06:15:19;;;;;;;11.90;5.77;;;;;21.50;97230.00;;;;4933135;29;20247;-71
2023/05/26 06:18:09;;;;;;;7.97;5.60;;;;;21.60;97240.00;;;;4933084;29;20585;-71
2023/05/26 06:20:58;;;;;;;10.27;6.67;;;;;21.90;97255.00;;;;4930695;29;20237;-71
2023/05/26 06:23:47;;;;;;;14.80;5.83;;;;;22.00;97242.00;;;;4927116;29;20213;-71
2023/05/26 06:26:37;;;;;;;6.60;5.20;;;;;22.10;97247.00;;;;4927796;29;20228;-71
2023/05/26 06:29:26;;;;;;;7.20;5.00;;;;;22.20;97246.00;;;;4909330;28;20212;-71
2023/05/26 06:32:15;;;;;;;7.43;6.00;;;;;22.40;97255.00;;;;4922131;29;20212;-72
2023/05/26 06:35:06;;;;;;;9.07;5.20;;;;;22.40;97255.00;;;;4918171;29;20225;-72
2023/05/26 06:37:55;;;;;;;7.60;5.27;;;;;22.30;97242.00;;;;4925792;29;20204;-70
2023/05/26 06:40:45;;;;;;;8.70;5.33;;;;;22.30;97252.00;;;;4938011;29;20220;-70
2023/05/26 06:43:34;;;;;;;7.13;5.07;;;;;22.70;97256.00;;;;4938063;28;20599;-71
2023/05/26 06:46:23;;;;;;;8.87;5.23;;;;;22.80;97260.00;;;;4938182;29;20209;-70
2023/05/26 06:49:12;;;;;;;11.77;5.03;;;;;22.70;97246.00;;;;4940579;29;20205;-70
2023/05/26 06:52:03;;;;;;;6.60;5.00;;;;;23.10;97256.00;;;;4932238;29;20212;-70
2023/05/26 06:54:52;;;;;;;7.63;4.60;;;;;22.50;97244.00;;;;4933731;29;20259;-72
2023/05/26 06:57:41;;;;;;;6.97;6.17;;;;;22.90;97241.00;;;;4932051;29;20197;-69
2023/05/26 07:00:32;;;;;;;6.50;4.30;;;;;22.90;97239.00;;;;4934250;29;20223;-70
2023/05/26 07:03:21;;;;;;;7.57;4.53;;;;;23.40;97242.00;;;;4936803;29;20208;-70
2023/05/26 07:06:11;;;;;;;7.93;4.93;;;;;23.70;97241.00;;;;4934987;29;20212;-70
2023/05/26 07:09:01;;;;;;;8.23;4.40;;;;;23.80;97241.00;;;;4935857;28;20211;-70
2023/05/26 07:11:50;;;;;;;5.83;4.90;;;;;23.60;97240.00;;;;4929920;28;20225;-70
2023/05/26 07:14:39;;;;;;;8.90;5.10;;;;;24.10;97249.00;;;;4931944;29;20607;-70
2023/05/26 07:17:28;;;;;;;5.60;5.03;;;;;24.00;97242.00;;;;4932800;29;20212;-69
2023/05/26 07:20:18;;;;;;;5.90;4.27;;;;;24.10;97246.00;;;;4931299;29;20212;-69
2023/05/26 07:23:07;;;;;;;6.77;4.37;;;;;24.30;97238.00;;;;4933378;29;20228;-70
2023/05/26 07:25:57;;;;;;;7.03;4.53;;;;;24.60;97247.00;;;;4935421;29;20225;-71
2023/05/26 07:28:48;;;;;;;7.27;4.53;;;;;24.60;97235.00;;;;4932202;29;20701;-70
2023/05/26 07:31:37;;;;;;;7.53;4.93;;;;;24.00;97239.00;;;;4931478;29;20211;-69
2023/05/26 07:34:26;;;;;;;6.00;4.50;;;;;24.20;97243.00;;;;4931055;29;20236;-69
2023/05/26 07:37:15;;;;;;;6.27;4.93;;;;;23.90;97235.00;;;;4932119;29;20216;-69
2023/05/26 07:40:05;;;;;;;7.63;4.23;;;;;24.60;97242.00;;;;4933235;29;20614;-71
2023/05/26 07:42:55;;;;;;;4.80;4.07;;;;;25.10;97248.00;;;;4936520;29;20235;-68
2023/05/26 07:45:45;;;;;;;11.80;4.60;;;;;25.10;97256.00;;;;4932676;29;20229;-69
2023/05/26 07:48:34;;;;;;;4.90;4.40;;;;;25.00;97252.00;;;;4930370;29;20599;-68
2023/05/26 07:51:23;;;;;;;6.50;4.40;;;;;25.30;97247.00;;;;4929231;29;20204;-69
2023/05/26 07:54:12;;;;;;;8.90;5.17;;;;;25.50;97246.00;;;;4930327;29;20756;-70
2023/05/26 07:57:01;;;;;;;11.27;4.20;;;;;25.50;97247.00;;;;4929338;29;20725;-69
2023/05/26 07:59:52;;;;;;;6.93;4.73;;;;;25.10;97253.00;;;;4933056;28;20228;-68
2023/05/26 08:02:42;;;;;;;6.90;3.97;;;;;24.10;97247.00;;;;4928372;29;20224;-68
2023/05/26 08:05:31;;;;;;;7.43;4.40;;;;;24.20;97246.00;;;;4931490;29;20220;-68
2023/05/26 08:08:20;;;;;;;5.23;4.27;;;;;24.80;97254.00;;;;4931282;29;20204;-71
2023/05/26 08:11:09;;;;;;;6.77;3.90;;;;;24.80;97245.00;;;;4929297;29;20209;-70
2023/05/26 08:13:59;;;;;;;8.80;4.30;;;;;24.50;97242.00;;;;4930543;29;20224;-70
2023/05/26 08:16:50;;;;;;;6.03;4.23;;;;;25.50;97231.00;;;;4955567;28;20207;-69
2023/05/26 08:19:39;;;;;;;6.00;3.50;;;;;26.30;97237.00;;;;4953299;28;20212;-70
2023/05/26 08:22:28;;;;;;;7.03;4.43;;;;;26.50;97245.00;;;;4946983;28;20224;-70
2023/05/26 08:25:17;;;;;;;5.83;4.20;;;;;26.70;97248.00;;;;4950047;28;20227;-69
2023/05/26 08:28:06;;;;;;;6.40;3.77;;;;;26.60;97234.00;;;;4948657;28;20204;-69
2023/05/26 08:30:55;;;;;;;8.13;4.10;;;;;26.80;97243.00;;;;4948564;28;20215;-68
2023/05/26 08:33:46;;;;;;;5.70;3.50;;;;;26.80;97242.00;;;;4954734;28;20204;-71
2023/05/26 08:36:35;;;;;;;3.93;2.90;;;;;27.10;97245.00;;;;4948501;28;20200;-69
2023/05/26 08:39:25;;;;;;;6.97;3.60;;;;;26.80;97232.00;;;;4952899;28;20211;-67
2023/05/26 08:42:15;;;;;;;5.27;3.63;;;;;27.10;97233.00;;;;4946634;28;20626;-70
2023/05/26 08:45:05;;;;;;;4.60;3.60;;;;;27.10;97232.00;;;;4951193;28;20223;-70
2023/05/26 08:47:55;;;;;;;6.07;3.50;;;;;27.50;97231.00;;;;4951875;28;20212;-70
2023/05/26 08:50:48;;;;;;;3.77;3.23;;;;;27.60;97232.00;;;;4949033;28;20207;-70
2023/05/26 08:53:37;;;;;;;6.07;3.77;;;;;27.60;97226.00;;;;4954047;28;20205;-71
2023/05/26 08:56:26;;;;;;;5.13;3.03;;;;;28.00;97229.00;;;;4952832;28;20202;-70
2023/05/26 08:59:17;;;;;;;4.13;3.40;;;;;27.40;97222.00;;;;4953361;28;20208;-69
2023/05/26 09:02:06;;;;;;;3.77;3.10;;;;;26.90;97236.00;;;;4954055;28;20221;-69
2023/05/26 09:04:55;;;;;;;5.80;3.40;;;;;27.50;97231.00;;;;4957831;28;20251;-68
2023/05/26 09:07:46;;;;;;;4.80;3.10;;;;;27.80;97225.00;;;;4955240;28;20216;-69
2023/05/26 09:10:35;;;;;;;5.77;3.43;;;;;28.10;97228.00;;;;4954178;28;20212;-69
2023/05/26 09:13:24;;;;;;;5.90;3.20;;;;;28.00;97234.00;;;;4953887;28;20200;-70
2023/05/26 09:16:14;;;;;;;4.30;3.20;;;;;28.10;97232.00;;;;4953390;28;20211;-69
2023/05/26 09:19:05;;;;;;;4.17;3.50;;;;;27.30;97228.00;;;;4950503;28;20202;-69
2023/05/26 09:21:55;;;;;;;3.97;3.07;;;;;27.40;97227.00;;;;4954566;28;20819;-68
2023/05/26 09:24:46;;;;;;;5.27;3.90;;;;;28.20;97234.00;;;;4949316;28;20226;-71
2023/05/26 09:27:36;;;;;;;3.17;2.87;;;;;27.80;97226.00;;;;4954604;28;20212;-69
2023/05/26 09:30:29;;;;;;;4.17;3.20;;;;;27.40;97225.00;;;;4953749;28;20219;-69
2023/05/26 09:33:19;;;;;;;4.93;3.83;;;;;28.20;97232.00;;;;4953610;28;20197;-70
2023/05/26 09:36:09;;;;;;;3.63;3.13;;;;;28.10;97221.00;;;;4954377;28;20214;-69
2023/05/26 09:38:58;;;;;;;5.53;2.80;;;;;28.90;97225.00;;;;4944504;28;20212;-70
2023/05/26 09:41:48;;;;;;;3.63;3.13;;;;;28.70;97222.00;;;;4954150;28;20209;-70
2023/05/26 09:44:39;;;;;;;4.67;2.90;;;;;29.10;97227.00;;;;4953000;28;20232;-72
2023/05/26 09:47:34;;;;;;;3.70;3.37;;;;;29.40;97217.00;;;;4954749;28;20211;-70
2023/05/26 09:50:24;;;;;;;4.37;2.67;;;;;28.80;97212.00;;;;4948634;28;20207;-69
2023/05/26 09:53:13;;;;;;;3.43;2.80;;;;;28.40;97207.00;;;;4960657;28;20208;-68
2023/05/26 09:56:03;;;;;;;4.67;2.97;;;;;29.50;97206.00;;;;4949038;28;20214;-69
2023/05/26 09:58:55;;;;;;;3.93;3.10;;;;;27.90;97211.00;;;;4944204;28;20203;-67
2023/05/26 10:01:46;;;;;;;3.23;2.70;;;;;28.90;97201.00;;;;4951230;28;20214;-68
2023/05/26 10:04:35;;;;;;;3.80;3.10;;;;;29.30;97197.00;;;;4949708;28;20751;-69
2023/05/26 10:07:24;;;;;;;2.90;2.50;;;;;29.80;97200.00;;;;4948295;28;20280;-71
2023/05/26 10:10:14;;;;;;;3.10;2.80;;;;;30.00;97201.00;;;;4947445;28;20204;-70
2023/05/26 10:13:05;;;;;;;5.63;2.70;;;;;30.30;97196.00;;;;4947242;28;20213;-70
2023/05/26 10:15:55;;;;;;;3.13;2.83;;;;;30.70;97191.00;;;;4964463;23;20250;-75
2023/05/26 10:18:45;;;;;;;2.97;2.63;;;;;30.40;97199.00;;;;4950648;28;20227;-74
2023/05/26 10:21:38;;;;;;;3.73;2.77;;;;;30.70;97206.00;;;;4949342;28;20221;-73
2023/05/26 10:24:31;;;;;;;4.77;2.93;;;;;30.00;97192.00;;;;4945766;28;20233;-75
2023/05/26 10:27:25;;;;;;;2.60;2.37;;;;;30.60;97187.00;;;;4931434;29;20200;-77
2023/05/26 10:30:18;;;;;;;2.50;2.10;;;;;30.40;97182.00;;;;4928321;29;20248;-77
2023/05/26 10:33:13;;;;;;;3.40;3.10;;;;;31.10;97173.00;;;;4927688;29;20215;-75
2023/05/26 10:36:06;;;;;;;5.73;2.80;;;;;29.20;97168.00;;;;4927449;29;21081;-72
2023/05/26 10:38:56;;;;;;;2.60;2.40;;;;;29.30;97163.00;;;;4933766;29;20214;-77
2023/05/26 10:41:49;;;;;;;4.37;3.57;;;;;29.60;97167.00;;;;4929921;28;20211;-76
2023/05/26 10:44:43;;;;;;;3.63;2.83;;;;;31.00;97169.00;;;;4930793;29;20738;-74
2023/05/26 10:47:32;;;;;;;5.33;2.97;;;;;30.80;97156.00;;;;4928607;29;20215;-75
2023/05/26 10:50:23;;;;;;;2.87;2.50;;;;;30.20;97168.00;;;;4928638;28;20204;-76
2023/05/26 10:53:20;;;;;;;2.87;2.30;;;;;31.10;97160.00;;;;4933321;28;20229;-77
2023/05/26 10:56:11;;;;;;;3.07;2.77;;;;;30.50;97159.00;;;;4933748;28;20231;-76
2023/05/26 10:59:00;;;;;;;3.97;2.70;;;;;31.10;97147.00;;;;4934978;28;20218;-77
2023/05/26 11:01:53;;;;;;;3.77;2.87;;;;;31.50;97147.00;;;;4930666;28;20205;-74
2023/05/26 11:04:43;;;;;;;4.03;2.53;;;;;32.80;97147.00;;;;4938646;29;20252;-74
2023/05/26 11:07:34;;;;;;;3.07;2.60;;;;;31.00;97140.00;;;;4931624;28;20218;-76
2023/05/26 11:10:23;;;;;;;4.53;3.60;;;;;31.70;97134.00;;;;4933004;29;20210;-76
2023/05/26 11:13:12;;;;;;;3.87;2.67;;;;;31.50;97147.00;;;;4932158;29;20606;-77
2023/05/26 11:16:12;;;;;;;3.27;2.73;;;;;31.60;97144.00;;;;4932794;28;20610;-76
2023/05/26 11:19:04;;;;;;;5.00;2.70;;;;;30.40;97177.00;;;;4932458;29;20200;-76
2023/05/26 11:21:54;;;;;;;3.30;2.53;;;;;29.30;97180.00;;;;4935864;29;20218;-75
2023/05/26 11:24:44;;;;;;;3.87;2.80;;;;;31.00;97161.00;;;;4932772;28;20715;-74
2023/05/26 11:27:33;;;;;;;5.20;2.87;;;;;31.80;97125.00;;;;4931937;29;20588;-74
2023/05/26 11:30:23;;;;;;;3.93;3.00;;;;;33.80;97130.00;;;;4931893;29;20206;-74
2023/05/26 11:33:14;;;;;;;3.30;3.00;;;;;33.80;97147.00;;;;4931158;29;20209;-74
2023/05/26 11:36:07;;;;;;;3.83;3.22;;;;;33.30;97112.00;;;;4932200;29;20272;-75
2023/05/26 11:39:00;;;;;;;6.70;3.47;;;;;34.00;97104.00;;;;4926740;29;20593;-74
2023/05/26 11:41:50;;;;;;;2.85;2.63;;;;;34.30;97107.00;;;;4930315;29;20208;-74
2023/05/26 11:44:40;;;;;;;3.42;3.13;;;;;33.40;97179.00;;;;4930883;29;20604;-74
2023/05/26 11:47:30;;;;;;;4.43;3.42;;;;;33.10;97167.00;;;;4934719;29;20581;-74
2023/05/26 11:50:20;;;;;;;4.43;3.13;;;;;31.40;97181.00;;;;4934825;28;20212;-74
2023/05/26 11:53:10;;;;;;;3.85;3.00;;;;;29.00;97174.00;;;;4930751;29;20820;-74
2023/05/26 11:56:03;;;;;;;4.40;2.97;;;;;30.20;97169.00;;;;4935367;29;20227;-76
2023/05/26 11:58:57;;;;;;;5.30;2.72;;;;;32.10;97100.00;;;;4930242;29;20213;-76
2023/05/26 12:01:46;;;;;;;3.67;2.60;;;;;31.70;97174.00;;;;4934267;29;20213;-77
2023/05/26 12:04:35;;;;;;;5.03;3.22;;;;;31.60;97180.00;;;;4940175;29;20244;-76
2023/05/26 12:07:26;;;;;;;3.60;3.17;;;;;30.70;97182.00;;;;4932756;28;20218;-76
2023/05/26 12:10:15;;;;;;;4.05;3.33;;;;;29.60;97185.00;;;;4930916;29;20609;-74
2023/05/26 12:13:04;;;;;;;3.80;3.45;;;;;29.80;97179.00;;;;4928070;29;20224;-74
2023/05/26 12:15:55;;;;;;;5.03;4.30;;;;;30.00;97182.00;;;;4918545;29;20275;-73
2023/05/26 12:18:45;;;;;;;6.50;4.30;;;;;29.00;97181.00;;;;4916362;29;20212;-74
2023/05/26 12:21:40;;;;;;;4.53;4.00;;;;;28.60;97181.00;;;;4913718;29;20706;-76
2023/05/26 12:24:33;;;;;;;6.83;3.83;;;;;28.70;97173.00;;;;4915772;29;20622;-76
2023/05/26 12:27:22;;;;;;;5.57;4.17;;;;;29.40;97182.00;;;;4916487;29;20213;-76
2023/05/26 12:30:19;;;;;;;4.70;4.10;;;;;29.10;97177.00;;;;4914568;29;20214;-76
2023/05/26 12:33:09;;;;;;;4.20;3.53;;;;;29.20;97174.00;;;;4917364;29;20684;-74
2023/05/26 12:35:59;;;;;;;4.73;3.50;;;;;29.00;97178.00;;;;4923304;29;20282;-76
2023/05/26 12:38:49;;;;;;;6.07;3.63;;;;;28.70;97181.00;;;;4919705;29;20212;-76
2023/05/26 12:41:40;;;;;;;5.77;4.27;;;;;28.80;97174.00;;;;4917790;28;20211;-77
2023/05/26 12:44:29;;;;;;;5.23;4.70;;;;;29.20;97160.00;;;;4914979;29;20231;-76
2023/05/26 12:47:18;;;;;;;7.53;4.13;;;;;31.90;97087.00;;;;4921864;29;20679;-77
2023/05/26 12:50:09;;;;;;;5.97;3.87;;;;;31.50;97091.00;;;;4917764;29;20204;-78
2023/05/26 12:52:59;;;;;;;5.40;4.40;;;;;29.40;97089.00;;;;4914048;29;20213;-72
2023/05/26 12:55:48;;;;;;;3.83;3.37;;;;;29.60;97135.00;;;;4918688;29;20226;-73
2023/05/26 12:58:37;;;;;;;5.87;4.23;;;;;30.30;97118.00;;;;4926318;29;20217;-77
2023/05/26 13:01:26;;;;;;;5.00;4.17;;;;;32.20;97126.00;;;;4917227;29;20208;-77
2023/05/26 13:04:15;;;;;;;5.77;3.80;;;;;32.50;97075.00;;;;4918603;29;20659;-77
2023/05/26 13:07:08;;;;;;;5.30;4.03;;;;;31.70;97153.00;;;;4912106;29;20213;-77
2023/05/26 13:09:57;;;;;;;3.92;3.55;;;;;31.00;97155.00;;;;4923388;29;20211;-77
2023/05/26 13:12:46;;;;;;;5.40;4.35;;;;;30.80;97163.00;;;;4917772;29;20212;-78
2023/05/26 13:15:35;;;;;;;4.17;3.77;;;;;30.00;97163.00;;;;4917182;29;20615;-77
2023/05/26 13:18:25;;;;;;;5.93;4.17;;;;;29.90;97166.00;;;;4913517;29;20213;-77
2023/05/26 13:21:14;;;;;;;4.83;4.37;;;;;29.60;97175.00;;;;4914033;29;20239;-76
2023/05/26 13:24:05;;;;;;;4.47;4.07;;;;;29.10;97169.00;;;;4913992;29;20219;-74
2023/05/26 13:26:54;;;;;;;7.40;4.67;;;;;28.80;97175.00;;;;4915194;29;20898;-75
2023/05/26 13:29:43;;;;;;;5.00;4.27;;;;;28.20;97173.00;;;;4920784;29;20212;-76
2023/05/26 13:32:33;;;;;;;5.70;5.13;;;;;28.00;97171.00;;;;4914705;29;20213;-76
2023/05/26 13:35:22;;;;;;;7.03;3.77;;;;;27.70;97169.00;;;;4915941;29;20216;-75
2023/05/26 13:38:11;;;;;;;4.87;4.40;;;;;27.40;97166.00;;;;4915426;29;20706;-75
2023/05/26 13:41:02;;;;;;;7.00;4.73;;;;;27.70;97171.00;;;;4916744;29;20212;-76
2023/05/26 13:43:51;;;;;;;9.03;4.40;;;;;27.80;97165.00;;;;4915044;29;20828;-76
2023/05/26 13:46:40;;;;;;;10.20;5.03;;;;;27.90;97167.00;;;;4921225;28;20208;-76
2023/05/26 13:49:29;;;;;;;6.17;4.10;;;;;27.90;97166.00;;;;4915153;29;20280;-75
2023/05/26 13:52:18;;;;;;;9.50;4.90;;;;;27.70;97163.00;;;;4914391;29;20203;-75
2023/05/26 13:55:08;;;;;;;5.23;4.40;;;;;27.70;97154.00;;;;4914835;29;20233;-76
2023/05/26 13:57:59;;;;;;;6.43;4.87;;;;;28.10;97152.00;;;;4915372;29;20206;-75
2023/05/26 14:00:48;;;;;;;11.97;5.00;;;;;28.60;97145.00;;;;4914728;29;20203;-75
2023/05/26 14:03:37;;;;;;;8.97;5.30;;;;;28.80;97134.00;;;;4914427;29;20203;-76
2023/05/26 14:06:34;;;;;;;5.93;4.60;;;;;30.40;97145.00;;;;4915144;28;20719;-76
2023/05/26 14:09:23;;;;;;;6.17;4.90;;;;;29.60;97154.00;;;;4912921;29;20200;-76
2023/05/26 14:12:12;;;;;;;7.17;4.93;;;;;29.20;97160.00;;;;4915791;29;20209;-76